Time;durP1;ratioP1;P1;durP2;ratioP2;P2;SDS_P1;SDS_P2;PMS_P1;PMS_P2;Temp;Humidity;BMP_temperature;BMP_pressure;BME280_temperature;BME280_humidity;BME280_pressure;Samples;Min_cycle;Max_cycle;Signal;HPM_P1;HPM_P2
2023/12/04 00:01:21;;;;;;;18.10;6.85;;;-0.20;99.90;;;;;;4976226;28;20034;-65
2023/12/04 00:03:47;;;;;;;21.90;8.80;;;-0.10;99.90;;;;;;4986850;28;20396;-66
2023/12/04 00:06:13;;;;;;;22.10;8.85;;;-0.20;99.90;;;;;;4988881;28;20631;-66
2023/12/04 00:08:41;;;;;;;19.88;8.05;;;-0.20;99.90;;;;;;4970380;28;20469;-65
2023/12/04 00:11:07;;;;;;;18.40;7.85;;;-0.20;99.90;;;;;;4962722;28;20033;-64
2023/12/04 00:13:33;;;;;;;16.95;6.65;;;-0.10;99.90;;;;;;4962806;28;20022;-65
2023/12/04 00:15:59;;;;;;;19.42;7.75;;;-0.10;99.90;;;;;;4988321;28;20458;-65
2023/12/04 00:18:25;;;;;;;20.40;7.90;;;-0.10;99.90;;;;;;4988674;28;20057;-65
2023/12/04 00:20:53;;;;;;;22.75;8.00;;;-0.20;99.90;;;;;;4988885;28;20374;-65
2023/12/04 00:23:18;;;;;;;17.20;6.85;;;-0.10;99.90;;;;;;4988241;28;20061;-66
2023/12/04 00:25:44;;;;;;;16.55;6.78;;;-0.20;99.90;;;;;;4968252;28;20061;-65
2023/12/04 00:28:09;;;;;;;14.18;6.45;;;-0.10;99.90;;;;;;4960710;28;20399;-65
2023/12/04 00:30:35;;;;;;;16.40;6.82;;;-0.20;99.90;;;;;;4968319;28;20026;-64
2023/12/04 00:33:01;;;;;;;17.23;6.85;;;-0.10;99.90;;;;;;4988647;28;20659;-65
2023/12/04 00:35:26;;;;;;;16.15;6.68;;;-0.10;99.90;;;;;;4982450;28;20022;-65
2023/12/04 00:37:52;;;;;;;21.83;8.15;;;-0.10;99.90;;;;;;4987739;28;20577;-65
2023/12/04 00:40:17;;;;;;;18.98;7.47;;;-0.10;99.90;;;;;;4988209;28;20037;-65
2023/12/04 00:42:43;;;;;;;14.57;5.38;;;-0.10;99.90;;;;;;4987356;28;20062;-65
2023/12/04 00:45:09;;;;;;;20.45;8.02;;;0.00;99.90;;;;;;4987965;28;20026;-65
2023/12/04 00:47:34;;;;;;;15.45;6.93;;;0.00;99.90;;;;;;4987499;28;20374;-65
2023/12/04 00:50:00;;;;;;;17.40;6.50;;;0.00;99.90;;;;;;4987810;28;20033;-65
2023/12/04 00:52:26;;;;;;;17.83;6.43;;;0.10;99.90;;;;;;4986652;28;20026;-65
2023/12/04 00:54:51;;;;;;;20.27;7.82;;;0.10;99.90;;;;;;4987802;28;20113;-65
2023/12/04 00:57:17;;;;;;;17.17;6.55;;;0.10;99.90;;;;;;4985173;28;20030;-65
2023/12/04 00:59:42;;;;;;;16.00;5.68;;;0.20;99.90;;;;;;4964684;28;20387;-65
2023/12/04 01:02:08;;;;;;;18.35;7.05;;;0.20;99.90;;;;;;4986001;28;20038;-65
2023/12/04 01:04:34;;;;;;;16.33;6.13;;;0.20;99.90;;;;;;4987688;28;20027;-65
2023/12/04 01:07:00;;;;;;;16.20;5.97;;;0.20;99.90;;;;;;4987450;28;20031;-65
2023/12/04 01:09:25;;;;;;;12.32;4.97;;;0.20;99.90;;;;;;4987717;28;20109;-65
2023/12/04 01:11:54;;;;;;;13.55;5.28;;;0.30;99.90;;;;;;4970410;28;20030;-65
2023/12/04 01:14:20;;;;;;;12.85;5.13;;;0.30;99.90;;;;;;4984390;28;20564;-65
2023/12/04 01:16:46;;;;;;;16.90;6.47;;;0.30;99.90;;;;;;4986908;28;20026;-65
2023/12/04 01:19:12;;;;;;;14.73;6.20;;;0.30;99.90;;;;;;4980857;28;20058;-64
2023/12/04 01:21:38;;;;;;;15.73;6.57;;;0.30;99.90;;;;;;4987161;28;20345;-64
2023/12/04 01:24:03;;;;;;;14.75;5.40;;;0.30;99.90;;;;;;4987788;28;20097;-64
2023/12/04 01:26:29;;;;;;;13.85;5.53;;;0.30;99.90;;;;;;4987487;28;20029;-64
2023/12/04 01:28:55;;;;;;;16.38;6.22;;;0.30;99.90;;;;;;4988379;28;20654;-64
2023/12/04 01:31:21;;;;;;;15.57;6.10;;;0.30;99.90;;;;;;4960207;28;20082;-64
2023/12/04 01:33:46;;;;;;;14.73;6.05;;;0.30;99.90;;;;;;4987478;28;20030;-64
2023/12/04 01:36:12;;;;;;;18.00;6.47;;;0.30;99.90;;;;;;4987609;28;20030;-65
2023/12/04 01:38:38;;;;;;;17.40;6.68;;;0.30;99.90;;;;;;4987263;28;20068;-65
2023/12/04 01:41:04;;;;;;;13.68;5.95;;;0.30;99.90;;;;;;4987511;28;20030;-64
2023/12/04 01:43:30;;;;;;;18.10;6.25;;;0.30;99.90;;;;;;4987165;28;20222;-65
2023/12/04 01:45:56;;;;;;;18.25;6.35;;;0.40;99.90;;;;;;4987280;28;20145;-64
2023/12/04 01:48:23;;;;;;;15.90;5.90;;;0.40;99.90;;;;;;4987564;28;20029;-65
2023/12/04 01:50:49;;;;;;;12.70;4.82;;;0.40;99.90;;;;;;4986839;28;20098;-64
2023/12/04 01:53:15;;;;;;;14.40;5.90;;;0.40;99.90;;;;;;4987594;28;20018;-64
2023/12/04 01:55:41;;;;;;;18.52;7.20;;;0.40;99.90;;;;;;4969394;28;20109;-64
2023/12/04 01:58:07;;;;;;;18.38;7.63;;;0.40;99.90;;;;;;4964038;28;20230;-64
2023/12/04 02:00:33;;;;;;;16.25;6.38;;;0.40;99.90;;;;;;4984628;28;20556;-64
2023/12/04 02:03:01;;;;;;;11.70;4.93;;;0.40;99.90;;;;;;4987403;28;20046;-65
2023/12/04 02:05:29;;;;;;;11.27;4.45;;;0.40;99.90;;;;;;4986508;28;20389;-64
2023/12/04 02:07:55;;;;;;;13.38;5.72;;;0.40;99.90;;;;;;4987073;28;20027;-64
2023/12/04 02:10:22;;;;;;;16.70;6.00;;;0.40;99.90;;;;;;4987544;28;20623;-64
2023/12/04 02:12:48;;;;;;;16.73;6.38;;;0.30;99.90;;;;;;4967317;28;20512;-64
2023/12/04 02:15:16;;;;;;;12.93;4.47;;;0.30;99.90;;;;;;4986335;28;20030;-64
2023/12/04 02:17:44;;;;;;;14.85;4.72;;;0.30;99.90;;;;;;4986157;28;20022;-64
2023/12/04 02:20:12;;;;;;;14.52;5.68;;;0.30;99.90;;;;;;4969199;28;20038;-64
2023/12/04 02:22:38;;;;;;;14.38;6.25;;;0.30;99.90;;;;;;4984359;28;20125;-64
2023/12/04 02:25:04;;;;;;;15.70;6.07;;;0.30;99.90;;;;;;4982445;28;20093;-64
2023/12/04 02:27:49;;;;;;;12.00;5.10;;;0.30;99.90;;;;;;4980862;28;20113;-64
2023/12/04 02:30:18;;;;;;;13.02;5.57;;;0.30;99.90;;;;;;4984626;28;20490;-65
2023/12/04 02:32:46;;;;;;;15.70;6.07;;;0.30;99.90;;;;;;4966168;28;20070;-66
2023/12/04 02:35:14;;;;;;;13.27;5.18;;;0.30;99.90;;;;;;4985541;28;20029;-65
2023/12/04 02:37:41;;;;;;;14.23;5.85;;;0.30;99.90;;;;;;4985736;28;20018;-65
2023/12/04 02:40:07;;;;;;;14.65;4.82;;;0.30;99.90;;;;;;4963172;28;20057;-65
2023/12/04 02:42:33;;;;;;;11.80;5.60;;;0.40;99.90;;;;;;4985573;28;20113;-64
2023/12/04 02:44:59;;;;;;;12.88;5.10;;;0.40;99.90;;;;;;4962892;28;20015;-64
2023/12/04 02:47:24;;;;;;;12.80;4.93;;;0.40;99.90;;;;;;4968340;28;20494;-65
2023/12/04 02:49:51;;;;;;;11.93;4.50;;;0.50;99.90;;;;;;4986898;28;20130;-64
2023/12/04 02:52:16;;;;;;;11.57;4.50;;;0.50;99.90;;;;;;4986180;28;20030;-64
2023/12/04 02:54:44;;;;;;;12.25;4.85;;;0.50;99.90;;;;;;4985583;28;20393;-64
2023/12/04 02:57:10;;;;;;;12.38;5.25;;;0.50;99.90;;;;;;4986077;28;20109;-64
2023/12/04 02:59:35;;;;;;;11.35;4.47;;;0.60;99.90;;;;;;4985442;28;20204;-64
2023/12/04 03:02:01;;;;;;;12.48;4.70;;;0.60;99.90;;;;;;4979642;28;20117;-65
2023/12/04 03:04:29;;;;;;;14.65;4.82;;;0.70;99.90;;;;;;4984358;28;20029;-65
2023/12/04 03:06:55;;;;;;;12.48;4.45;;;0.70;99.90;;;;;;4984248;28;20102;-65
2023/12/04 03:09:20;;;;;;;16.67;5.72;;;0.70;99.90;;;;;;4986127;28;20947;-66
2023/12/04 03:11:48;;;;;;;11.15;4.45;;;0.70;99.90;;;;;;4986690;28;20041;-65
2023/12/04 03:14:14;;;;;;;11.30;4.55;;;0.70;99.90;;;;;;4962592;28;20145;-65
2023/12/04 03:16:40;;;;;;;14.60;5.32;;;0.70;99.90;;;;;;4986616;28;20133;-66
2023/12/04 03:19:05;;;;;;;11.60;3.92;;;0.70;99.90;;;;;;4987087;28;20027;-65
2023/12/04 03:21:31;;;;;;;12.55;4.63;;;0.70;99.90;;;;;;4986901;28;20500;-65
2023/12/04 03:23:57;;;;;;;9.15;3.15;;;0.70;99.90;;;;;;4964826;28;20027;-65
2023/12/04 03:26:22;;;;;;;11.95;4.28;;;0.70;99.90;;;;;;4986906;28;20109;-65
2023/12/04 03:28:48;;;;;;;12.60;4.10;;;0.70;99.90;;;;;;4987346;28;20033;-66
2023/12/04 03:31:14;;;;;;;9.98;3.92;;;0.70;99.90;;;;;;4985598;28;20039;-65
2023/12/04 03:33:39;;;;;;;11.30;4.28;;;0.70;99.90;;;;;;4986725;28;20030;-65
2023/12/04 03:36:06;;;;;;;12.38;4.95;;;0.70;99.90;;;;;;4961363;28;20038;-65
2023/12/04 03:38:31;;;;;;;10.07;4.10;;;0.70;99.90;;;;;;4983465;28;20057;-65
2023/12/04 03:40:57;;;;;;;12.05;4.90;;;0.70;99.90;;;;;;4986367;28;20030;-64
2023/12/04 03:43:22;;;;;;;11.93;4.63;;;0.80;99.90;;;;;;4989553;28;20038;-64
2023/12/04 03:45:48;;;;;;;9.45;3.08;;;0.80;99.90;;;;;;4989034;28;20402;-65
2023/12/04 03:48:13;;;;;;;11.00;3.60;;;0.80;99.90;;;;;;4986654;28;20033;-65
2023/12/04 03:50:39;;;;;;;9.13;3.85;;;0.80;99.90;;;;;;4989312;28;20114;-65
2023/12/04 03:53:05;;;;;;;13.05;4.30;;;0.80;99.90;;;;;;4989799;28;20036;-65
2023/12/04 03:55:30;;;;;;;12.73;4.10;;;0.80;99.90;;;;;;4989404;28;20094;-66
2023/12/04 03:57:57;;;;;;;12.40;3.83;;;0.80;99.90;;;;;;4988733;28;20081;-65
2023/12/04 04:00:23;;;;;;;6.22;2.58;;;0.90;99.90;;;;;;4986191;28;20033;-65
2023/12/04 04:02:51;;;;;;;11.00;4.10;;;0.90;99.90;;;;;;4990093;28;20026;-65
2023/12/04 04:05:20;;;;;;;11.20;4.53;;;0.90;99.90;;;;;;4988340;28;20445;-65
2023/12/04 04:07:45;;;;;;;11.10;3.97;;;0.90;99.90;;;;;;4990136;28;20080;-66
2023/12/04 04:10:11;;;;;;;9.52;3.72;;;0.90;99.90;;;;;;4989899;28;20023;-66
2023/12/04 04:12:39;;;;;;;10.55;4.10;;;0.90;99.90;;;;;;4989524;28;20387;-66
2023/12/04 04:15:06;;;;;;;10.38;3.92;;;0.90;99.90;;;;;;4960779;28;20041;-66
2023/12/04 04:17:33;;;;;;;11.20;4.15;;;0.90;99.90;;;;;;4987934;28;20053;-65
2023/12/04 04:19:59;;;;;;;8.60;3.75;;;0.90;99.90;;;;;;4990154;28;20387;-65
2023/12/04 04:22:24;;;;;;;8.32;3.50;;;1.00;99.90;;;;;;4989594;28;20049;-65
2023/12/04 04:24:52;;;;;;;8.30;3.55;;;1.00;99.90;;;;;;4988766;28;20492;-65
2023/12/04 04:27:18;;;;;;;9.40;3.72;;;1.00;99.90;;;;;;4982675;28;20691;-65
2023/12/04 04:29:44;;;;;;;8.55;3.25;;;1.00;99.90;;;;;;4988014;28;20201;-65
2023/12/04 04:32:10;;;;;;;12.48;3.83;;;1.10;99.90;;;;;;4987950;28;20069;-66
2023/12/04 04:34:35;;;;;;;10.23;3.83;;;1.00;99.90;;;;;;4990096;28;20565;-65
2023/12/04 04:37:01;;;;;;;12.70;3.65;;;1.00;99.90;;;;;;4989130;28;20030;-65
2023/12/04 04:39:26;;;;;;;10.23;3.65;;;0.90;99.90;;;;;;4990372;28;20452;-65
2023/12/04 04:41:52;;;;;;;12.23;3.55;;;0.90;99.90;;;;;;4987823;28;20034;-65
2023/12/04 04:44:18;;;;;;;10.80;4.63;;;0.90;99.90;;;;;;4990813;28;20037;-64
2023/12/04 04:46:43;;;;;;;11.45;4.20;;;0.80;99.90;;;;;;4990336;28;20474;-65
2023/12/04 04:49:09;;;;;;;9.75;4.00;;;0.80;99.90;;;;;;4973197;28;20384;-65
2023/12/04 04:51:35;;;;;;;11.05;3.67;;;0.80;99.90;;;;;;4989538;28;20061;-65
2023/12/04 04:54:01;;;;;;;9.25;3.70;;;0.80;99.90;;;;;;4984969;28;20041;-66
2023/12/04 04:56:26;;;;;;;10.57;3.45;;;0.80;99.90;;;;;;4985830;28;20031;-65
2023/12/04 04:58:52;;;;;;;10.52;4.15;;;0.80;99.90;;;;;;4964663;28;20299;-66
2023/12/04 05:01:18;;;;;;;8.68;3.67;;;0.80;99.90;;;;;;4989187;28;20030;-65
2023/12/04 05:03:43;;;;;;;9.68;3.33;;;0.80;99.90;;;;;;4989927;28;20022;-65
2023/12/04 05:06:09;;;;;;;9.40;3.80;;;0.80;99.90;;;;;;4973404;28;20018;-66
2023/12/04 05:08:37;;;;;;;10.75;4.53;;;0.80;99.90;;;;;;4990182;28;20026;-66
2023/12/04 05:11:03;;;;;;;11.02;4.07;;;0.80;99.90;;;;;;4972567;28;20022;-65
2023/12/04 05:13:29;;;;;;;9.18;3.90;;;0.90;99.90;;;;;;4987908;28;20100;-66
2023/12/04 05:15:54;;;;;;;10.85;3.58;;;0.90;99.90;;;;;;4988391;28;20101;-66
2023/12/04 05:18:20;;;;;;;9.50;3.70;;;0.90;99.90;;;;;;4990276;28;20308;-66
2023/12/04 05:20:45;;;;;;;8.27;3.50;;;0.90;99.90;;;;;;4971449;28;20172;-66
2023/12/04 05:23:11;;;;;;;9.23;3.67;;;1.00;99.90;;;;;;4972554;28;20018;-66
2023/12/04 05:25:37;;;;;;;8.82;3.53;;;1.00;99.90;;;;;;4988953;28;20092;-66
2023/12/04 05:28:04;;;;;;;9.60;3.30;;;1.00;99.90;;;;;;4970923;28;20030;-66
2023/12/04 05:30:29;;;;;;;7.80;2.67;;;1.00;99.90;;;;;;4983714;28;20362;-66
2023/12/04 05:32:55;;;;;;;9.68;3.05;;;1.00;99.90;;;;;;4982704;28;20038;-67
2023/12/04 05:35:20;;;;;;;10.52;4.05;;;1.00;99.90;;;;;;4979082;28;20042;-65
2023/12/04 05:37:46;;;;;;;13.13;4.32;;;1.00;99.90;;;;;;4962728;28;20033;-66
2023/12/04 05:40:12;;;;;;;8.98;3.13;;;1.00;99.90;;;;;;4979336;28;20116;-66
2023/12/04 05:42:38;;;;;;;10.82;4.03;;;1.00;99.90;;;;;;4979485;28;20101;-65
2023/12/04 05:45:04;;;;;;;10.85;4.10;;;1.00;99.90;;;;;;4979911;28;20023;-65
2023/12/04 05:47:29;;;;;;;7.97;3.40;;;1.10;99.90;;;;;;4967047;28;20030;-65
2023/12/04 05:49:55;;;;;;;9.88;3.30;;;1.10;99.90;;;;;;4986791;28;20381;-65
2023/12/04 05:52:20;;;;;;;8.90;2.75;;;1.10;99.90;;;;;;4987789;28;20034;-66
2023/12/04 05:54:46;;;;;;;10.15;3.65;;;1.20;99.90;;;;;;4970011;28;20081;-66
2023/12/04 05:57:12;;;;;;;12.43;3.55;;;1.20;99.90;;;;;;4969738;28;20022;-65
2023/12/04 05:59:37;;;;;;;9.95;3.53;;;1.10;99.90;;;;;;4987102;28;20031;-65
2023/12/04 06:02:03;;;;;;;11.10;3.28;;;1.10;99.90;;;;;;4985519;28;20381;-65
2023/12/04 06:04:29;;;;;;;8.30;3.17;;;1.10;99.90;;;;;;4985713;28;20080;-65
2023/12/04 06:06:57;;;;;;;9.43;3.53;;;1.20;99.90;;;;;;4981330;28;20371;-65
2023/12/04 06:09:23;;;;;;;9.60;3.20;;;1.20;99.90;;;;;;4980349;28;20115;-66
2023/12/04 06:11:48;;;;;;;10.10;3.53;;;1.10;99.90;;;;;;4976778;28;20085;-66
2023/12/04 06:14:14;;;;;;;10.93;3.83;;;1.10;99.90;;;;;;4982869;28;20027;-65
2023/12/04 06:16:39;;;;;;;10.02;3.60;;;1.10;99.90;;;;;;4980205;28;20026;-66
2023/12/04 06:19:05;;;;;;;11.13;4.70;;;1.10;99.90;;;;;;4963584;28;20030;-65
2023/12/04 06:21:31;;;;;;;9.07;3.75;;;1.10;99.90;;;;;;4981632;28;20041;-65
2023/12/04 06:23:57;;;;;;;11.85;4.43;;;1.10;99.90;;;;;;4978203;28;20031;-65
2023/12/04 06:26:23;;;;;;;10.10;4.18;;;1.00;99.90;;;;;;4982071;28;20034;-66
2023/12/04 06:28:51;;;;;;;9.77;3.63;;;1.00;99.90;;;;;;4962308;28;20052;-65
2023/12/04 06:31:17;;;;;;;9.52;3.72;;;1.00;99.90;;;;;;4980184;28;20022;-66
2023/12/04 06:33:43;;;;;;;11.27;4.50;;;1.00;99.90;;;;;;4963659;28;20038;-66
2023/12/04 06:36:11;;;;;;;11.95;5.03;;;1.00;99.90;;;;;;4969380;28;20026;-64
2023/12/04 06:38:39;;;;;;;18.13;8.57;;;1.00;99.90;;;;;;4960326;28;20057;-65
2023/12/04 06:41:06;;;;;;;35.20;13.18;;;1.00;99.90;;;;;;4959806;28;20031;-66
2023/12/04 06:43:32;;;;;;;10.73;4.68;;;0.90;99.90;;;;;;4968879;28;20393;-64
2023/12/04 06:46:01;;;;;;;13.45;3.70;;;0.90;99.90;;;;;;4974011;28;20634;-64
2023/12/04 06:48:27;;;;;;;11.23;4.32;;;0.90;99.90;;;;;;4980390;28;20096;-65
2023/12/04 06:50:53;;;;;;;10.90;4.10;;;0.90;99.90;;;;;;4979242;28;20030;-65
2023/12/04 06:53:18;;;;;;;11.95;4.30;;;0.90;99.90;;;;;;4977082;28;20030;-65
2023/12/04 06:55:44;;;;;;;10.18;3.47;;;0.90;98.30;;;;;;4957478;28;20043;-65
2023/12/04 06:58:10;;;;;;;11.23;4.10;;;0.80;99.40;;;;;;4979667;28;20031;-65
2023/12/04 07:00:35;;;;;;;10.10;3.58;;;0.90;99.80;;;;;;4975449;28;20584;-65
2023/12/04 07:03:01;;;;;;;11.60;3.65;;;0.90;99.90;;;;;;4981070;28;20052;-65
2023/12/04 07:05:27;;;;;;;9.75;3.45;;;0.90;99.50;;;;;;4958145;28;20078;-65
2023/12/04 07:07:52;;;;;;;10.18;3.70;;;0.90;99.70;;;;;;4973522;28;20098;-64
2023/12/04 07:10:18;;;;;;;9.70;3.40;;;1.00;99.90;;;;;;4976292;28;20374;-65
2023/12/04 07:12:44;;;;;;;10.15;3.70;;;0.90;99.90;;;;;;4977619;28;20022;-67
2023/12/04 07:15:11;;;;;;;8.98;3.65;;;0.90;99.90;;;;;;4978438;28;20759;-65
2023/12/04 07:17:37;;;;;;;9.15;3.15;;;0.90;99.10;;;;;;4980208;28;20099;-65
2023/12/04 07:20:06;;;;;;;9.82;3.47;;;1.00;99.90;;;;;;4979278;28;20047;-65
2023/12/04 07:22:32;;;;;;;6.07;2.53;;;;;;;;;;4972077;28;20031;-65
2023/12/04 07:24:58;;;;;;;6.30;2.55;;;1.00;99.60;;;;;;4978998;28;20026;-65
2023/12/04 07:27:24;;;;;;;8.07;2.97;;;1.00;99.90;;;;;;4981925;28;20495;-66
2023/12/04 07:29:49;;;;;;;9.23;3.30;;;1.10;98.90;;;;;;4975983;28;20075;-65
2023/12/04 07:32:15;;;;;;;10.98;4.10;;;1.10;98.70;;;;;;4977366;28;20125;-65
2023/12/04 07:34:40;;;;;;;9.35;3.30;;;1.10;96.20;;;;;;4972774;28;20701;-65
2023/12/04 07:37:08;;;;;;;10.05;3.53;;;1.20;98.30;;;;;;4986033;28;20177;-65
2023/12/04 07:39:34;;;;;;;8.75;3.58;;;1.20;97.40;;;;;;4987232;28;20061;-65
2023/12/04 07:41:59;;;;;;;8.65;3.88;;;1.20;97.50;;;;;;4975823;28;20031;-65
2023/12/04 07:44:25;;;;;;;10.57;4.22;;;1.20;99.00;;;;;;4975905;28;20022;-65
2023/12/04 07:46:53;;;;;;;8.82;3.25;;;1.20;96.90;;;;;;4978128;28;20022;-65
2023/12/04 07:49:19;;;;;;;9.77;3.42;;;1.30;97.80;;;;;;4977391;28;20026;-64
2023/12/04 07:51:44;;;;;;;9.02;3.58;;;1.30;95.40;;;;;;4960290;28;20026;-64
2023/12/04 07:54:10;;;;;;;9.73;4.10;;;1.30;97.00;;;;;;4983943;28;20114;-64
2023/12/04 07:56:35;;;;;;;9.75;3.80;;;1.40;94.80;;;;;;4968008;28;20049;-65
2023/12/04 07:59:01;;;;;;;8.38;3.17;;;1.40;96.60;;;;;;4976247;28;20096;-65
2023/12/04 08:01:27;;;;;;;10.18;3.72;;;1.40;97.00;;;;;;4975169;28;20061;-66
2023/12/04 08:03:52;;;;;;;8.32;3.40;;;1.40;97.50;;;;;;4979024;28;20022;-66
2023/12/04 08:06:18;;;;;;;9.30;3.53;;;1.40;95.80;;;;;;4980598;28;20061;-66
2023/12/04 08:08:44;;;;;;;8.45;3.55;;;1.50;97.50;;;;;;4959767;28;20031;-66
2023/12/04 08:11:11;;;;;;;8.85;3.38;;;1.40;96.90;;;;;;4978472;28;20023;-65
2023/12/04 08:13:38;;;;;;;8.63;3.13;;;1.40;94.80;;;;;;4980852;28;20019;-65
2023/12/04 08:16:05;;;;;;;10.63;3.78;;;1.50;96.10;;;;;;4976861;28;20449;-65
2023/12/04 08:18:30;;;;;;;8.52;3.33;;;1.50;96.10;;;;;;4977070;28;20027;-65
2023/12/04 08:20:56;;;;;;;9.70;2.85;;;1.50;97.20;;;;;;4956716;28;20222;-65
2023/12/04 08:23:21;;;;;;;9.00;3.25;;;1.60;96.50;;;;;;4977505;28;20038;-65
2023/12/04 08:25:48;;;;;;;10.02;3.78;;;1.60;97.10;;;;;;4981304;28;20041;-65
2023/12/04 08:28:13;;;;;;;10.52;3.33;;;1.60;95.30;;;;;;4983086;28;20101;-65
2023/12/04 08:30:41;;;;;;;9.73;3.40;;;1.60;97.30;;;;;;4956166;28;20146;-65
2023/12/04 08:33:07;;;;;;;8.23;3.30;;;1.60;97.10;;;;;;4973144;28;20035;-65
2023/12/04 08:35:32;;;;;;;7.95;3.20;;;1.60;97.00;;;;;;4963139;28;20107;-65
2023/12/04 08:37:58;;;;;;;9.45;3.50;;;1.60;97.20;;;;;;4973461;28;20394;-66
2023/12/04 08:40:24;;;;;;;8.23;3.53;;;1.60;96.10;;;;;;4977528;28;20031;-65
2023/12/04 08:42:49;;;;;;;8.40;3.67;;;1.60;97.70;;;;;;4960526;28;20549;-65
2023/12/04 08:45:15;;;;;;;8.38;3.38;;;1.60;96.30;;;;;;4971598;28;20026;-65
2023/12/04 08:47:40;;;;;;;9.50;2.60;;;1.60;96.90;;;;;;4974233;28;20019;-65
2023/12/04 08:50:07;;;;;;;6.95;2.88;;;1.60;96.90;;;;;;4980189;28;20023;-65
2023/12/04 08:52:35;;;;;;;10.32;3.97;;;1.70;96.80;;;;;;4979604;28;20076;-65
2023/12/04 08:55:01;;;;;;;8.60;3.17;;;1.70;96.80;;;;;;4975707;28;20030;-65
2023/12/04 08:57:27;;;;;;;6.50;2.80;;;1.70;97.30;;;;;;4963401;28;20084;-66
2023/12/04 08:59:52;;;;;;;6.90;2.45;;;1.70;96.50;;;;;;4977718;28;20419;-66
2023/12/04 09:02:18;;;;;;;9.75;3.65;;;1.70;97.00;;;;;;4976685;28;20077;-66
2023/12/04 09:04:44;;;;;;;10.95;3.60;;;1.70;98.60;;;;;;4978559;28;20033;-65
2023/12/04 09:07:09;;;;;;;7.28;2.70;;;1.70;97.40;;;;;;4981035;28;20030;-66
2023/12/04 09:09:37;;;;;;;8.32;3.28;;;1.70;99.10;;;;;;4979580;28;20102;-67
2023/12/04 09:12:03;;;;;;;7.05;2.90;;;1.70;99.70;;;;;;4980974;28;20518;-66
2023/12/04 09:14:28;;;;;;;10.63;3.67;;;1.80;97.30;;;;;;4963900;28;20241;-66
2023/12/04 09:16:55;;;;;;;11.07;3.90;;;1.80;96.70;;;;;;4961025;28;20073;-65
2023/12/04 09:19:20;;;;;;;12.07;3.97;;;1.80;96.20;;;;;;4976334;28;20066;-66
2023/12/04 09:21:46;;;;;;;11.43;4.28;;;1.80;98.00;;;;;;4979033;28;20481;-66
2023/12/04 09:24:13;;;;;;;9.20;3.78;;;1.90;97.10;;;;;;4976833;28;20101;-67
2023/12/04 09:26:39;;;;;;;10.18;3.97;;;1.90;96.40;;;;;;4974534;28;20113;-67
2023/12/04 09:29:04;;;;;;;12.25;4.90;;;1.90;95.30;;;;;;4978895;28;20556;-67
2023/12/04 09:31:30;;;;;;;11.27;3.80;;;1.90;97.20;;;;;;4974158;28;20038;-67
2023/12/04 09:33:55;;;;;;;13.95;4.05;;;2.00;97.00;;;;;;4979343;28;20038;-66
2023/12/04 09:36:21;;;;;;;11.05;4.03;;;2.00;96.90;;;;;;4979253;28;20033;-67
2023/12/04 09:38:47;;;;;;;8.40;3.20;;;2.00;96.90;;;;;;4977453;28;20027;-65
2023/12/04 09:41:13;;;;;;;10.18;3.95;;;2.00;95.70;;;;;;4962027;28;20363;-65
2023/12/04 09:43:41;;;;;;;8.90;3.47;;;2.00;98.20;;;;;;4979847;28;20462;-66
2023/12/04 09:46:08;;;;;;;9.35;3.35;;;2.00;98.10;;;;;;4978110;28;20022;-67
2023/12/04 09:48:34;;;;;;;10.65;3.28;;;1.60;98.40;;;;;;4974883;28;20173;-67
2023/12/04 09:51:01;;;;;;;13.40;4.13;;;2.00;97.60;;;;;;4980041;28;20026;-66
2023/12/04 09:53:28;;;;;;;11.15;3.20;;;2.10;98.50;;;;;;4978761;28;20047;-67
2023/12/04 09:55:59;;;;;;;8.65;3.28;;;2.10;96.70;;;;;;4961363;28;20436;-66
2023/12/04 09:58:32;;;;;;;9.27;3.35;;;2.10;97.50;;;;;;4979304;28;20041;-66
2023/12/04 10:00:59;;;;;;;9.10;2.90;;;2.20;98.00;;;;;;4960722;28;20470;-66
2023/12/04 10:03:25;;;;;;;11.02;3.70;;;2.20;98.30;;;;;;4978792;28;20247;-66
2023/12/04 10:05:53;;;;;;;9.05;3.53;;;2.20;96.80;;;;;;4959757;28;20415;-66
2023/12/04 10:08:19;;;;;;;9.40;3.80;;;2.20;97.60;;;;;;4979061;28;20485;-65
2023/12/04 10:10:44;;;;;;;10.50;4.13;;;2.20;97.20;;;;;;4979329;28;20038;-65
2023/12/04 10:13:10;;;;;;;10.82;4.28;;;2.20;97.30;;;;;;4980468;28;20019;-65
2023/12/04 10:15:47;;;;;;;10.90;4.38;;;2.20;98.80;;;;;;4980675;28;20379;-65
2023/12/04 10:18:30;;;;;;;12.73;4.13;;;2.20;98.10;;;;;;4979434;28;20026;-66
2023/12/04 10:20:56;;;;;;;8.18;3.33;;;2.20;99.50;;;;;;4977956;28;20101;-67
2023/12/04 10:23:22;;;;;;;9.70;3.53;;;2.20;99.90;;;;;;4977852;28;20882;-67
2023/12/04 10:25:51;;;;;;;10.38;3.70;;;2.30;99.10;;;;;;4972589;28;20019;-67
2023/12/04 10:28:18;;;;;;;9.23;3.35;;;2.30;98.90;;;;;;4953870;28;20498;-67
2023/12/04 10:30:45;;;;;;;11.77;3.90;;;2.30;98.10;;;;;;4959803;28;20505;-67
2023/12/04 10:33:13;;;;;;;10.32;3.78;;;2.40;98.50;;;;;;4959273;28;20118;-67
2023/12/04 10:35:40;;;;;;;9.35;3.70;;;2.50;99.00;;;;;;4958472;28;20023;-67
2023/12/04 10:38:07;;;;;;;9.65;3.42;;;2.50;97.90;;;;;;4975786;28;20089;-67
2023/12/04 10:40:34;;;;;;;8.85;2.88;;;2.60;98.20;;;;;;4959328;28;20115;-66
2023/12/04 10:43:24;;;;;;;10.13;4.00;;;2.60;98.90;;;;;;4958319;28;20022;-66
2023/12/04 10:45:51;;;;;;;6.55;2.88;;;2.70;96.70;;;;;;4968487;28;20110;-67
2023/12/04 10:48:17;;;;;;;10.55;3.47;;;2.70;97.40;;;;;;4977255;28;20030;-66
2023/12/04 10:50:45;;;;;;;8.73;3.38;;;2.70;96.10;;;;;;4976673;28;20102;-66
2023/12/04 10:53:12;;;;;;;12.15;3.88;;;2.70;97.40;;;;;;4977761;28;20030;-66
2023/12/04 10:55:39;;;;;;;9.20;3.78;;;2.70;97.00;;;;;;4962256;28;20090;-67
2023/12/04 10:58:06;;;;;;;8.23;3.13;;;2.80;97.80;;;;;;4959171;28;20482;-66
2023/12/04 11:00:34;;;;;;;12.95;3.67;;;2.70;98.00;;;;;;4977389;28;20030;-67
2023/12/04 11:03:08;;;;;;;8.45;3.10;;;2.80;97.10;;;;;;4972975;28;20098;-67
2023/12/04 11:05:39;;;;;;;9.77;3.25;;;2.80;97.80;;;;;;4975873;28;20363;-66
2023/12/04 11:08:07;;;;;;;9.35;3.88;;;2.80;99.00;;;;;;4975548;28;20026;-65
2023/12/04 11:10:35;;;;;;;14.25;4.50;;;2.80;98.50;;;;;;4979747;28;20084;-66
2023/12/04 11:13:06;;;;;;;10.10;3.60;;;2.80;98.40;;;;;;4978653;28;20081;-67
2023/12/04 11:15:38;;;;;;;10.40;3.75;;;2.80;99.20;;;;;;4958815;28;20077;-66
2023/12/04 11:18:05;;;;;;;10.65;3.95;;;2.80;98.70;;;;;;4972266;28;20023;-65
2023/12/04 11:20:33;;;;;;;13.02;4.55;;;2.80;99.60;;;;;;4976394;28;20051;-66
2023/12/04 11:23:00;;;;;;;14.20;3.97;;;2.80;99.60;;;;;;4981448;28;20022;-65
2023/12/04 11:25:28;;;;;;;11.00;4.72;;;2.80;99.90;;;;;;4976125;28;20557;-66
2023/12/04 11:27:55;;;;;;;11.18;3.97;;;2.80;99.90;;;;;;4977424;28;20102;-65
2023/12/04 11:30:21;;;;;;;8.48;3.17;;;2.70;99.80;;;;;;4975052;28;20161;-62
2023/12/04 11:32:51;;;;;;;12.40;3.65;;;2.70;99.90;;;;;;4976049;28;20046;-66
2023/12/04 11:35:17;;;;;;;9.45;4.07;;;2.70;99.90;;;;;;4962703;28;20062;-65
2023/12/04 11:37:44;;;;;;;13.27;4.70;;;2.70;99.90;;;;;;4974371;28;20545;-64
2023/12/04 11:40:15;;;;;;;10.25;3.22;;;3.50;99.90;;;;;;4959974;28;20037;-69
2023/12/04 11:42:41;;;;;;;10.38;4.53;;;2.60;99.90;;;;;;4974486;28;20069;-68
2023/12/04 11:45:08;;;;;;;14.27;5.28;;;2.60;99.90;;;;;;4973301;28;20110;-63
2023/12/04 11:48:00;;;;;;;14.32;5.13;;;2.60;99.90;;;;;;4977957;28;20029;-64
2023/12/04 11:50:26;;;;;;;11.68;5.13;;;2.60;99.90;;;;;;4972115;28;20555;-65
2023/12/04 11:52:52;;;;;;;9.63;4.55;;;2.60;99.90;;;;;;4974985;28;20109;-67
2023/12/04 11:55:21;;;;;;;11.15;4.70;;;2.60;99.90;;;;;;4971844;28;20059;-68
2023/12/04 11:57:49;;;;;;;11.55;4.60;;;2.60;99.90;;;;;;4980112;28;20022;-66
2023/12/04 12:00:21;;;;;;;12.43;5.07;;;2.60;99.90;;;;;;4975352;28;20581;-68
2023/12/04 12:02:53;;;;;;;11.90;4.75;;;2.50;99.90;;;;;;4964459;28;20058;-63
2023/12/04 12:05:22;;;;;;;10.73;4.38;;;2.60;99.90;;;;;;4981627;28;20093;-67
2023/12/04 12:07:48;;;;;;;11.43;4.22;;;2.60;99.90;;;;;;4976671;28;20040;-67
2023/12/04 12:10:16;;;;;;;13.95;4.82;;;2.60;99.90;;;;;;4978837;28;20018;-67
2023/12/04 12:12:43;;;;;;;13.20;4.50;;;2.60;99.90;;;;;;4975717;28;20487;-65
2023/12/04 12:15:10;;;;;;;11.85;4.03;;;2.50;99.90;;;;;;4968484;28;20030;-66
2023/12/04 12:17:37;;;;;;;12.88;4.90;;;2.50;99.90;;;;;;4976322;28;20030;-66
2023/12/04 12:20:06;;;;;;;18.85;5.55;;;2.50;99.90;;;;;;4977513;28;20406;-64
2023/12/04 12:22:33;;;;;;;14.38;6.55;;;2.50;99.90;;;;;;4977874;28;20145;-64
2023/12/04 12:24:59;;;;;;;15.43;5.22;;;2.50;99.90;;;;;;4978600;28;20427;-67
2023/12/04 12:27:25;;;;;;;11.60;4.43;;;2.50;99.90;;;;;;4964775;28;20033;-65
2023/12/04 12:29:51;;;;;;;15.40;5.40;;;2.50;99.90;;;;;;4980446;28;20092;-64
2023/12/04 12:32:16;;;;;;;13.13;6.13;;;2.50;99.90;;;;;;4976583;28;20120;-68
2023/12/04 12:34:42;;;;;;;11.98;5.75;;;2.60;99.90;;;;;;4978903;28;20053;-68
2023/12/04 12:37:09;;;;;;;16.55;5.90;;;2.60;99.90;;;;;;4962884;28;20563;-69
2023/12/04 12:39:35;;;;;;;14.90;6.15;;;2.60;99.90;;;;;;4981944;28;20395;-68
2023/12/04 12:42:01;;;;;;;11.32;4.38;;;2.60;99.90;;;;;;4961880;28;20035;-68
2023/12/04 12:44:36;;;;;;;14.70;5.55;;;2.60;99.90;;;;;;4980070;28;20042;-67
2023/12/04 12:47:05;;;;;;;16.88;6.63;;;2.70;99.90;;;;;;4979703;28;20371;-67